sensor_id;sensor_type;location;lat;lon;timestamp;pressure;altitude;pressure_sealevel;temperature;humidity
45441;BME280;31189;38.790;-77.084;2023-03-11T00:00:35;100440.77;;;10.99;79.40
45441;BME280;31189;38.790;-77.084;2023-03-11T00:03:05;100444.06;;;10.19;81.28
45441;BME280;31189;38.790;-77.084;2023-03-11T00:05:36;100442.28;;;9.95;83.88
45441;BME280;31189;38.790;-77.084;2023-03-11T00:08:06;100438.42;;;9.86;81.25
45441;BME280;31189;38.790;-77.084;2023-03-11T00:10:37;100439.46;;;10.11;81.97
45441;BME280;31189;38.790;-77.084;2023-03-11T00:13:08;100439.71;;;10.60;77.58
45441;BME280;31189;38.790;-77.084;2023-03-11T00:15:37;100440.26;;;10.95;75.63
45441;BME280;31189;38.790;-77.084;2023-03-11T00:18:06;100441.39;;;10.39;76.60
45441;BME280;31189;38.790;-77.084;2023-03-11T00:20:36;100438.26;;;10.73;76.12
45441;BME280;31189;38.790;-77.084;2023-03-11T00:23:05;100437.09;;;10.34;78.20
45441;BME280;31189;38.790;-77.084;2023-03-11T00:25:35;100427.44;;;11.07;74.40
45441;BME280;31189;38.790;-77.084;2023-03-11T00:28:04;100422.39;;;11.15;73.26
45441;BME280;31189;38.790;-77.084;2023-03-11T00:30:33;100429.03;;;10.75;74.78
45441;BME280;31189;38.790;-77.084;2023-03-11T00:33:02;100432.89;;;10.78;73.89
45441;BME280;31189;38.790;-77.084;2023-03-11T00:35:31;100434.91;;;10.52;73.98
45441;BME280;31189;38.790;-77.084;2023-03-11T00:38:01;100435.87;;;10.73;71.95
45441;BME280;31189;38.790;-77.084;2023-03-11T00:40:31;100440.01;;;10.48;74.11
45441;BME280;31189;38.790;-77.084;2023-03-11T00:42:59;100436.02;;;10.00;75.38
45441;BME280;31189;38.790;-77.084;2023-03-11T00:45:28;100435.71;;;10.06;74.59
45441;BME280;31189;38.790;-77.084;2023-03-11T00:47:56;100437.92;;;10.18;74.44
45441;BME280;31189;38.790;-77.084;2023-03-11T00:50:26;100440.33;;;10.25;74.40
45441;BME280;31189;38.790;-77.084;2023-03-11T00:52:55;100440.00;;;10.04;75.97
45441;BME280;31189;38.790;-77.084;2023-03-11T00:55:25;100439.88;;;10.19;74.90
45441;BME280;31189;38.790;-77.084;2023-03-11T00:57:54;100442.55;;;9.86;75.47
45441;BME280;31189;38.790;-77.084;2023-03-11T01:00:24;100441.03;;;10.46;73.38
45441;BME280;31189;38.790;-77.084;2023-03-11T01:02:54;100442.77;;;10.47;73.43
45441;BME280;31189;38.790;-77.084;2023-03-11T01:05:25;100441.75;;;10.16;73.93
45441;BME280;31189;38.790;-77.084;2023-03-11T01:07:53;100452.89;;;9.92;73.60
45441;BME280;31189;38.790;-77.084;2023-03-11T01:10:21;100455.92;;;9.47;75.86
45441;BME280;31189;38.790;-77.084;2023-03-11T01:12:50;100457.09;;;9.92;75.16
45441;BME280;31189;38.790;-77.084;2023-03-11T01:15:20;100457.85;;;9.54;75.67
45441;BME280;31189;38.790;-77.084;2023-03-11T01:17:49;100456.37;;;9.41;76.38
45441;BME280;31189;38.790;-77.084;2023-03-11T01:20:17;100459.28;;;9.52;76.68
45441;BME280;31189;38.790;-77.084;2023-03-11T01:22:45;100457.88;;;8.59;81.15
45441;BME280;31189;38.790;-77.084;2023-03-11T01:25:16;100455.22;;;9.16;78.65
45441;BME280;31189;38.790;-77.084;2023-03-11T01:27:44;100435.66;;;8.01;83.60
45441;BME280;31189;38.790;-77.084;2023-03-11T01:30:15;100428.64;;;8.69;81.91
45441;BME280;31189;38.790;-77.084;2023-03-11T01:32:43;100424.55;;;8.60;80.30
45441;BME280;31189;38.790;-77.084;2023-03-11T01:35:13;100431.73;;;9.09;76.92
45441;BME280;31189;38.790;-77.084;2023-03-11T01:37:41;100434.24;;;9.08;77.69
45441;BME280;31189;38.790;-77.084;2023-03-11T01:40:16;100431.20;;;9.47;75.40
45441;BME280;31189;38.790;-77.084;2023-03-11T01:42:46;100436.27;;;9.86;72.87
45441;BME280;31189;38.790;-77.084;2023-03-11T01:46:04;100432.34;;;9.17;72.94
45441;BME280;31189;38.790;-77.084;2023-03-11T01:48:32;100434.01;;;7.29;81.93
45441;BME280;31189;38.790;-77.084;2023-03-11T01:51:01;100440.34;;;8.54;77.09
45441;BME280;31189;38.790;-77.084;2023-03-11T01:53:29;100437.79;;;8.10;78.74
45441;BME280;31189;38.790;-77.084;2023-03-11T01:55:57;100439.29;;;8.44;77.98
45441;BME280;31189;38.790;-77.084;2023-03-11T01:58:30;100443.54;;;8.61;77.78
45441;BME280;31189;38.790;-77.084;2023-03-11T02:00:59;100443.85;;;8.93;77.66
45441;BME280;31189;38.790;-77.084;2023-03-11T02:03:31;100447.58;;;8.50;77.50
45441;BME280;31189;38.790;-77.084;2023-03-11T02:06:02;100450.63;;;9.10;74.57
45441;BME280;31189;38.790;-77.084;2023-03-11T02:08:30;100452.30;;;9.00;74.70
45441;BME280;31189;38.790;-77.084;2023-03-11T02:10:58;100450.23;;;8.80;76.56
45441;BME280;31189;38.790;-77.084;2023-03-11T02:13:27;100441.31;;;8.17;80.21
45441;BME280;31189;38.790;-77.084;2023-03-11T02:15:56;100441.26;;;8.12;79.72
45441;BME280;31189;38.790;-77.084;2023-03-11T02:18:26;100438.26;;;8.00;79.00
45441;BME280;31189;38.790;-77.084;2023-03-11T02:21:02;100431.05;;;8.56;78.54
45441;BME280;31189;38.790;-77.084;2023-03-11T02:23:48;100429.33;;;8.37;76.37
45441;BME280;31189;38.790;-77.084;2023-03-11T02:26:21;100423.13;;;8.28;75.81
45441;BME280;31189;38.790;-77.084;2023-03-11T02:28:52;100427.87;;;6.70;83.22
45441;BME280;31189;38.790;-77.084;2023-03-11T02:31:20;100431.26;;;7.39;82.82
45441;BME280;31189;38.790;-77.084;2023-03-11T02:33:50;100427.74;;;6.99;82.50
45441;BME280;31189;38.790;-77.084;2023-03-11T02:36:33;100424.97;;;7.96;78.03
45441;BME280;31189;38.790;-77.084;2023-03-11T02:39:01;100421.32;;;8.06;76.96
45441;BME280;31189;38.790;-77.084;2023-03-11T02:41:30;100420.84;;;8.45;74.74
45441;BME280;31189;38.790;-77.084;2023-03-11T02:43:58;100422.92;;;8.48;76.05
45441;BME280;31189;38.790;-77.084;2023-03-11T02:46:27;100423.02;;;7.49;78.94
45441;BME280;31189;38.790;-77.084;2023-03-11T02:48:55;100427.18;;;8.39;76.10
45441;BME280;31189;38.790;-77.084;2023-03-11T02:51:24;100425.53;;;7.74;76.07
45441;BME280;31189;38.790;-77.084;2023-03-11T02:53:55;100429.06;;;7.93;75.46
45441;BME280;31189;38.790;-77.084;2023-03-11T04:05:19;100485.55;;;4.09;82.76
45441;BME280;31189;38.790;-77.084;2023-03-11T04:07:51;100490.95;;;2.80;83.56
45441;BME280;31189;38.790;-77.084;2023-03-11T04:13:36;100482.64;;;5.36;81.87
45441;BME280;31189;38.790;-77.084;2023-03-11T04:18:11;100481.02;;;5.59;73.09
45441;BME280;31189;38.790;-77.084;2023-03-11T04:20:43;100482.59;;;4.78;71.31
